Ocean Ridge, Florida
Current Conditions -  °F | °C
As of 10:53 PM on Friday 31 Oct 2014 (Local Time) from KBCT Reporting Station
Few Clouds Few Clouds  
Wind Chill: 70°   Ceiling: Unl
Heat Index: 70°   Visibility: 10mi
Dew Point: 57°   Wind: 12mph
Humidity: 64%   Direction: 310°NW
Pressure: 29.89"   Gusts: NA
Location:  26.5249°N, 80.0659°W
Report Text: KBCT 010253Z 31010KT 10SM FEW027 21/14 A2989 RMK LAST
Loading
Personal Weather Stations






























Interactive Weather Map
Tropical Storm Tracking
New forecast layout! Learn more

10-Day Weather Forecast

Advertisements
Track Severe Weather on mobile